sensor_id;sensor_type;location;lat;lon;timestamp;temperature;humidity
41953;DHT22;47381;28.206;112.926;2022-08-07T00:00:00;31.80;37.10
41953;DHT22;47381;28.206;112.926;2022-08-07T00:02:30;31.80;36.00
41953;DHT22;47381;28.206;112.926;2022-08-07T00:04:57;31.80;35.70
41953;DHT22;47381;28.206;112.926;2022-08-07T00:07:25;31.80;36.00
41953;DHT22;47381;28.206;112.926;2022-08-07T00:09:52;31.80;35.80
41953;DHT22;47381;28.206;112.926;2022-08-07T00:12:19;31.80;35.70
41953;DHT22;47381;28.206;112.926;2022-08-07T00:14:46;31.80;35.90
41953;DHT22;47381;28.206;112.926;2022-08-07T00:17:13;31.80;36.10
41953;DHT22;47381;28.206;112.926;2022-08-07T00:19:40;31.80;36.60
41953;DHT22;47381;28.206;112.926;2022-08-07T00:22:08;31.90;37.20
41953;DHT22;47381;28.206;112.926;2022-08-07T00:24:35;31.90;40.10
41953;DHT22;47381;28.206;112.926;2022-08-07T00:27:03;31.90;41.60
41953;DHT22;47381;28.206;112.926;2022-08-07T00:29:30;31.90;41.00
41953;DHT22;47381;28.206;112.926;2022-08-07T00:31:57;31.90;40.40
41953;DHT22;47381;28.206;112.926;2022-08-07T00:34:26;31.90;39.40
41953;DHT22;47381;28.206;112.926;2022-08-07T00:36:53;31.90;38.90
41953;DHT22;47381;28.206;112.926;2022-08-07T00:39:20;31.90;38.60
41953;DHT22;47381;28.206;112.926;2022-08-07T00:41:53;31.90;39.20
41953;DHT22;47381;28.206;112.926;2022-08-07T00:44:21;31.90;38.40
41953;DHT22;47381;28.206;112.926;2022-08-07T00:46:48;31.90;37.90
41953;DHT22;47381;28.206;112.926;2022-08-07T00:49:16;31.90;37.00
41953;DHT22;47381;28.206;112.926;2022-08-07T00:51:43;32.00;41.40
41953;DHT22;47381;28.206;112.926;2022-08-07T00:54:11;32.00;41.60
41953;DHT22;47381;28.206;112.926;2022-08-07T00:56:41;32.00;40.20
41953;DHT22;47381;28.206;112.926;2022-08-07T00:59:08;32.00;38.90
41953;DHT22;47381;28.206;112.926;2022-08-07T01:01:35;32.00;38.30
41953;DHT22;47381;28.206;112.926;2022-08-07T01:04:07;32.00;38.50
41953;DHT22;47381;28.206;112.926;2022-08-07T01:06:34;32.00;39.80
41953;DHT22;47381;28.206;112.926;2022-08-07T01:09:03;32.00;38.90
41953;DHT22;47381;28.206;112.926;2022-08-07T01:11:31;32.00;38.40
41953;DHT22;47381;28.206;112.926;2022-08-07T01:13:59;32.00;37.70
41953;DHT22;47381;28.206;112.926;2022-08-07T01:16:27;32.00;39.00
41953;DHT22;47381;28.206;112.926;2022-08-07T01:18:55;32.10;39.80
41953;DHT22;47381;28.206;112.926;2022-08-07T01:21:23;32.10;39.00
41953;DHT22;47381;28.206;112.926;2022-08-07T01:23:52;32.00;39.80
41953;DHT22;47381;28.206;112.926;2022-08-07T01:26:21;32.00;38.80
41953;DHT22;47381;28.206;112.926;2022-08-07T01:28:49;32.10;38.10
41953;DHT22;47381;28.206;112.926;2022-08-07T01:31:18;32.10;37.70
41953;DHT22;47381;28.206;112.926;2022-08-07T01:33:46;32.10;37.80
41953;DHT22;47381;28.206;112.926;2022-08-07T01:36:13;32.10;38.80
41953;DHT22;47381;28.206;112.926;2022-08-07T01:38:40;32.10;38.20
41953;DHT22;47381;28.206;112.926;2022-08-07T01:41:08;32.10;37.30
41953;DHT22;47381;28.206;112.926;2022-08-07T01:43:37;32.10;37.00
41953;DHT22;47381;28.206;112.926;2022-08-07T01:46:08;32.10;37.10
41953;DHT22;47381;28.206;112.926;2022-08-07T01:48:35;32.10;38.50
41953;DHT22;47381;28.206;112.926;2022-08-07T01:51:10;32.10;37.40
41953;DHT22;47381;28.206;112.926;2022-08-07T01:53:43;32.10;38.00
41953;DHT22;47381;28.206;112.926;2022-08-07T01:56:28;32.10;37.80
41953;DHT22;47381;28.206;112.926;2022-08-07T01:59:07;32.20;38.90
41953;DHT22;47381;28.206;112.926;2022-08-07T02:01:41;32.20;40.50
41953;DHT22;47381;28.206;112.926;2022-08-07T02:04:46;32.20;42.60
41953;DHT22;47381;28.206;112.926;2022-08-07T02:07:14;32.20;43.20
41953;DHT22;47381;28.206;112.926;2022-08-07T02:09:45;32.20;43.90
41953;DHT22;47381;28.206;112.926;2022-08-07T02:12:13;32.20;43.80
41953;DHT22;47381;28.206;112.926;2022-08-07T02:14:48;32.20;45.00
41953;DHT22;47381;28.206;112.926;2022-08-07T02:17:17;32.20;45.40
41953;DHT22;47381;28.206;112.926;2022-08-07T02:19:46;32.20;45.40
41953;DHT22;47381;28.206;112.926;2022-08-07T02:22:15;32.20;44.20
41953;DHT22;47381;28.206;112.926;2022-08-07T02:24:47;32.30;44.80
41953;DHT22;47381;28.206;112.926;2022-08-07T02:27:17;32.30;44.70
41953;DHT22;47381;28.206;112.926;2022-08-07T02:29:48;32.30;43.40
41953;DHT22;47381;28.206;112.926;2022-08-07T02:32:17;32.30;43.70
41953;DHT22;47381;28.206;112.926;2022-08-07T02:34:46;32.30;44.40
41953;DHT22;47381;28.206;112.926;2022-08-07T02:37:14;32.30;45.10
41953;DHT22;47381;28.206;112.926;2022-08-07T02:39:43;32.30;44.30
41953;DHT22;47381;28.206;112.926;2022-08-07T02:42:12;32.40;43.60
41953;DHT22;47381;28.206;112.926;2022-08-07T02:44:42;32.40;42.80
41953;DHT22;47381;28.206;112.926;2022-08-07T02:47:12;32.40;43.40
41953;DHT22;47381;28.206;112.926;2022-08-07T02:49:44;32.40;45.00
41953;DHT22;47381;28.206;112.926;2022-08-07T02:53:01;32.50;46.50
41953;DHT22;47381;28.206;112.926;2022-08-07T02:55:32;32.50;46.40
41953;DHT22;47381;28.206;112.926;2022-08-07T02:58:06;32.40;45.90
41953;DHT22;47381;28.206;112.926;2022-08-07T03:00:37;32.40;45.70
41953;DHT22;47381;28.206;112.926;2022-08-07T03:03:06;32.50;44.80
41953;DHT22;47381;28.206;112.926;2022-08-07T03:05:34;32.50;44.30
41953;DHT22;47381;28.206;112.926;2022-08-07T03:08:05;32.50;43.80
41953;DHT22;47381;28.206;112.926;2022-08-07T03:10:52;32.50;43.80
41953;DHT22;47381;28.206;112.926;2022-08-07T03:13:19;32.50;44.10
41953;DHT22;47381;28.206;112.926;2022-08-07T03:15:49;32.50;43.20
41953;DHT22;47381;28.206;112.926;2022-08-07T03:18:17;32.50;43.80
41953;DHT22;47381;28.206;112.926;2022-08-07T03:20:44;32.50;43.00
41953;DHT22;47381;28.206;112.926;2022-08-07T03:23:17;32.50;44.30
41953;DHT22;47381;28.206;112.926;2022-08-07T03:25:48;32.50;43.30
41953;DHT22;47381;28.206;112.926;2022-08-07T03:28:17;32.60;43.20
41953;DHT22;47381;28.206;112.926;2022-08-07T03:30:46;32.60;41.90
41953;DHT22;47381;28.206;112.926;2022-08-07T03:33:14;32.60;41.70
41953;DHT22;47381;28.206;112.926;2022-08-07T03:36:02;32.60;41.00
41953;DHT22;47381;28.206;112.926;2022-08-07T03:38:30;32.60;39.70
41953;DHT22;47381;28.206;112.926;2022-08-07T03:40:58;32.60;41.00
41953;DHT22;47381;28.206;112.926;2022-08-07T03:43:26;32.70;42.40
41953;DHT22;47381;28.206;112.926;2022-08-07T03:45:54;32.70;43.30
41953;DHT22;47381;28.206;112.926;2022-08-07T03:48:41;32.70;43.80
41953;DHT22;47381;28.206;112.926;2022-08-07T03:51:11;32.70;43.20
41953;DHT22;47381;28.206;112.926;2022-08-07T03:53:40;32.70;44.30
41953;DHT22;47381;28.206;112.926;2022-08-07T03:56:09;32.70;43.10
41953;DHT22;47381;28.206;112.926;2022-08-07T03:58:38;32.70;42.90
41953;DHT22;47381;28.206;112.926;2022-08-07T04:01:25;32.80;42.00
41953;DHT22;47381;28.206;112.926;2022-08-07T04:03:54;32.80;40.70
41953;DHT22;47381;28.206;112.926;2022-08-07T04:06:41;32.80;39.90
41953;DHT22;47381;28.206;112.926;2022-08-07T04:09:11;32.80;39.40
41953;DHT22;47381;28.206;112.926;2022-08-07T04:11:39;32.80;39.60
41953;DHT22;47381;28.206;112.926;2022-08-07T04:14:07;32.80;39.10
41953;DHT22;47381;28.206;112.926;2022-08-07T04:16:37;32.80;40.10
41953;DHT22;47381;28.206;112.926;2022-08-07T04:19:07;32.80;40.20
41953;DHT22;47381;28.206;112.926;2022-08-07T04:21:34;32.90;40.90
41953;DHT22;47381;28.206;112.926;2022-08-07T04:24:02;32.90;41.30
41953;DHT22;47381;28.206;112.926;2022-08-07T04:26:31;33.00;41.90
41953;DHT22;47381;28.206;112.926;2022-08-07T04:28:58;33.00;42.00
41953;DHT22;47381;28.206;112.926;2022-08-07T04:31:45;33.00;42.80
41953;DHT22;47381;28.206;112.926;2022-08-07T04:34:13;33.10;43.70
41953;DHT22;47381;28.206;112.926;2022-08-07T04:36:40;33.10;43.00
41953;DHT22;47381;28.206;112.926;2022-08-07T04:39:09;33.10;43.30
41953;DHT22;47381;28.206;112.926;2022-08-07T04:41:37;33.10;43.60
41953;DHT22;47381;28.206;112.926;2022-08-07T04:44:04;33.20;43.90
41953;DHT22;47381;28.206;112.926;2022-08-07T04:54:50;33.20;43.50
41953;DHT22;47381;28.206;112.926;2022-08-07T05:00:10;33.20;41.60
41953;DHT22;47381;28.206;112.926;2022-08-07T05:02:58;33.20;40.70
41953;DHT22;47381;28.206;112.926;2022-08-07T05:12:06;33.40;39.50
41953;DHT22;47381;28.206;112.926;2022-08-07T05:14:44;33.40;39.60
41953;DHT22;47381;28.206;112.926;2022-08-07T05:17:14;33.40;39.20
41953;DHT22;47381;28.206;112.926;2022-08-07T05:19:53;33.50;38.80
41953;DHT22;47381;28.206;112.926;2022-08-07T05:22:22;33.40;38.40
41953;DHT22;47381;28.206;112.926;2022-08-07T05:24:51;33.50;38.70
41953;DHT22;47381;28.206;112.926;2022-08-07T05:27:21;33.60;40.00
41953;DHT22;47381;28.206;112.926;2022-08-07T05:29:50;33.60;41.10
41953;DHT22;47381;28.206;112.926;2022-08-07T05:32:18;33.60;40.80
41953;DHT22;47381;28.206;112.926;2022-08-07T05:34:47;33.60;41.50
41953;DHT22;47381;28.206;112.926;2022-08-07T05:37:15;33.60;42.70
41953;DHT22;47381;28.206;112.926;2022-08-07T05:39:44;33.60;42.50
41953;DHT22;47381;28.206;112.926;2022-08-07T05:42:14;33.60;42.50
41953;DHT22;47381;28.206;112.926;2022-08-07T05:44:41;33.70;43.40
41953;DHT22;47381;28.206;112.926;2022-08-07T05:47:10;33.70;43.20
41953;DHT22;47381;28.206;112.926;2022-08-07T05:49:39;33.70;43.00
41953;DHT22;47381;28.206;112.926;2022-08-07T05:52:06;33.70;42.80
41953;DHT22;47381;28.206;112.926;2022-08-07T05:54:35;33.70;42.80
41953;DHT22;47381;28.206;112.926;2022-08-07T05:57:03;33.70;42.40
41953;DHT22;47381;28.206;112.926;2022-08-07T05:59:36;33.70;42.30
41953;DHT22;47381;28.206;112.926;2022-08-07T06:02:08;33.80;42.10
41953;DHT22;47381;28.206;112.926;2022-08-07T06:04:56;33.70;41.70
41953;DHT22;47381;28.206;112.926;2022-08-07T06:07:24;33.80;43.00
41953;DHT22;47381;28.206;112.926;2022-08-07T06:09:53;33.80;43.60
41953;DHT22;47381;28.206;112.926;2022-08-07T06:12:21;33.90;43.40
41953;DHT22;47381;28.206;112.926;2022-08-07T06:14:48;33.90;43.30
41953;DHT22;47381;28.206;112.926;2022-08-07T06:17:36;33.90;43.40
41953;DHT22;47381;28.206;112.926;2022-08-07T06:20:09;33.80;43.30
41953;DHT22;47381;28.206;112.926;2022-08-07T06:22:38;33.90;43.20
41953;DHT22;47381;28.206;112.926;2022-08-07T06:25:06;33.80;42.90
41953;DHT22;47381;28.206;112.926;2022-08-07T06:27:33;33.80;42.70
41953;DHT22;47381;28.206;112.926;2022-08-07T06:30:01;33.80;43.00
41953;DHT22;47381;28.206;112.926;2022-08-07T06:32:28;33.90;43.00
41953;DHT22;47381;28.206;112.926;2022-08-07T06:34:58;33.90;42.70
41953;DHT22;47381;28.206;112.926;2022-08-07T06:37:45;33.90;42.50
41953;DHT22;47381;28.206;112.926;2022-08-07T06:40:13;33.90;42.20
41953;DHT22;47381;28.206;112.926;2022-08-07T06:42:42;33.90;41.80
41953;DHT22;47381;28.206;112.926;2022-08-07T06:45:17;33.90;41.90
41953;DHT22;47381;28.206;112.926;2022-08-07T06:47:49;34.00;41.20
41953;DHT22;47381;28.206;112.926;2022-08-07T06:50:18;33.90;40.60
41953;DHT22;47381;28.206;112.926;2022-08-07T06:52:50;33.90;39.90
41953;DHT22;47381;28.206;112.926;2022-08-07T06:55:28;33.90;39.20
41953;DHT22;47381;28.206;112.926;2022-08-07T06:58:02;33.90;38.70
41953;DHT22;47381;28.206;112.926;2022-08-07T07:00:37;33.90;38.10
41953;DHT22;47381;28.206;112.926;2022-08-07T07:03:26;34.00;37.50
41953;DHT22;47381;28.206;112.926;2022-08-07T07:05:53;33.90;37.30
41953;DHT22;47381;28.206;112.926;2022-08-07T07:08:25;33.90;37.20
41953;DHT22;47381;28.206;112.926;2022-08-07T07:11:14;33.90;37.90
41953;DHT22;47381;28.206;112.926;2022-08-07T07:13:48;34.00;38.90
41953;DHT22;47381;28.206;112.926;2022-08-07T07:16:21;33.90;38.70
41953;DHT22;47381;28.206;112.926;2022-08-07T07:18:56;34.00;40.00
41953;DHT22;47381;28.206;112.926;2022-08-07T07:21:33;34.00;40.50
41953;DHT22;47381;28.206;112.926;2022-08-07T07:24:05;33.90;40.10
41953;DHT22;47381;28.206;112.926;2022-08-07T07:26:35;33.90;40.30
41953;DHT22;47381;28.206;112.926;2022-08-07T07:29:09;33.90;39.70
41953;DHT22;47381;28.206;112.926;2022-08-07T07:31:46;33.90;39.30
41953;DHT22;47381;28.206;112.926;2022-08-07T07:34:21;33.90;39.70
41953;DHT22;47381;28.206;112.926;2022-08-07T07:36:49;33.90;40.70
41953;DHT22;47381;28.206;112.926;2022-08-07T07:39:18;33.90;41.30
41953;DHT22;47381;28.206;112.926;2022-08-07T07:41:49;33.90;41.60
41953;DHT22;47381;28.206;112.926;2022-08-07T07:44:20;33.90;41.40
41953;DHT22;47381;28.206;112.926;2022-08-07T07:46:49;33.90;41.40
41953;DHT22;47381;28.206;112.926;2022-08-07T07:49:18;33.90;41.10
41953;DHT22;47381;28.206;112.926;2022-08-07T07:51:48;33.90;42.20
41953;DHT22;47381;28.206;112.926;2022-08-07T07:54:16;33.90;42.70
41953;DHT22;47381;28.206;112.926;2022-08-07T07:56:47;33.90;42.20
41953;DHT22;47381;28.206;112.926;2022-08-07T07:59:37;33.90;41.90
41953;DHT22;47381;28.206;112.926;2022-08-07T08:02:06;33.80;41.30
41953;DHT22;47381;28.206;112.926;2022-08-07T08:04:36;33.80;41.20
41953;DHT22;47381;28.206;112.926;2022-08-07T08:07:04;33.80;40.50
41953;DHT22;47381;28.206;112.926;2022-08-07T08:09:52;33.80;40.00
41953;DHT22;47381;28.206;112.926;2022-08-07T08:12:22;33.80;39.50
41953;DHT22;47381;28.206;112.926;2022-08-07T08:14:50;33.80;39.30
41953;DHT22;47381;28.206;112.926;2022-08-07T08:17:22;33.80;39.10
41953;DHT22;47381;28.206;112.926;2022-08-07T08:20:14;33.80;39.10
41953;DHT22;47381;28.206;112.926;2022-08-07T08:22:46;33.80;39.90
41953;DHT22;47381;28.206;112.926;2022-08-07T08:25:34;33.80;39.10
41953;DHT22;47381;28.206;112.926;2022-08-07T08:28:24;33.80;38.60
41953;DHT22;47381;28.206;112.926;2022-08-07T08:30:58;33.70;38.20
41953;DHT22;47381;28.206;112.926;2022-08-07T08:33:32;33.70;38.50
41953;DHT22;47381;28.206;112.926;2022-08-07T08:36:03;33.70;38.90
41953;DHT22;47381;28.206;112.926;2022-08-07T08:38:36;33.70;38.90
41953;DHT22;47381;28.206;112.926;2022-08-07T08:47:49;33.70;40.20
41953;DHT22;47381;28.206;112.926;2022-08-07T08:52:43;33.70;42.00
41953;DHT22;47381;28.206;112.926;2022-08-07T08:55:20;33.70;42.20
41953;DHT22;47381;28.206;112.926;2022-08-07T08:58:14;33.70;42.90
41953;DHT22;47381;28.206;112.926;2022-08-07T09:01:15;33.70;42.20
41953;DHT22;47381;28.206;112.926;2022-08-07T09:03:54;33.70;42.50
41953;DHT22;47381;28.206;112.926;2022-08-07T09:12:47;33.70;41.20
41953;DHT22;47381;28.206;112.926;2022-08-07T09:29:23;33.60;42.80
41953;DHT22;47381;28.206;112.926;2022-08-07T10:00:26;33.30;39.00
41953;DHT22;47381;28.206;112.926;2022-08-07T10:07:39;33.30;38.70
41953;DHT22;47381;28.206;112.926;2022-08-07T10:15:24;33.30;39.50
41953;DHT22;47381;28.206;112.926;2022-08-07T10:29:41;33.20;37.80
41953;DHT22;47381;28.206;112.926;2022-08-07T10:35:18;33.20;37.00
41953;DHT22;47381;28.206;112.926;2022-08-07T10:40:55;33.20;36.50
41953;DHT22;47381;28.206;112.926;2022-08-07T10:43:33;33.10;36.20
41953;DHT22;47381;28.206;112.926;2022-08-07T10:46:06;33.20;36.00
41953;DHT22;47381;28.206;112.926;2022-08-07T10:51:37;33.10;35.60
41953;DHT22;47381;28.206;112.926;2022-08-07T10:57:45;33.10;35.30
41953;DHT22;47381;28.206;112.926;2022-08-07T11:00:15;33.10;35.30
41953;DHT22;47381;28.206;112.926;2022-08-07T11:02:59;33.00;35.00
41953;DHT22;47381;28.206;112.926;2022-08-07T11:11:32;33.00;35.00
41953;DHT22;47381;28.206;112.926;2022-08-07T11:14:14;33.00;34.90
41953;DHT22;47381;28.206;112.926;2022-08-07T11:16:56;33.00;35.00
41953;DHT22;47381;28.206;112.926;2022-08-07T11:23:19;33.00;35.10
41953;DHT22;47381;28.206;112.926;2022-08-07T11:28:51;32.90;35.00
41953;DHT22;47381;28.206;112.926;2022-08-07T11:31:54;33.00;40.00
41953;DHT22;47381;28.206;112.926;2022-08-07T11:34:52;33.10;47.00
41953;DHT22;47381;28.206;112.926;2022-08-07T11:51:41;33.00;43.50
41953;DHT22;47381;28.206;112.926;2022-08-07T12:05:57;32.80;39.90
41953;DHT22;47381;28.206;112.926;2022-08-07T12:08:37;32.90;39.90
41953;DHT22;47381;28.206;112.926;2022-08-07T12:11:39;32.80;39.30
41953;DHT22;47381;28.206;112.926;2022-08-07T12:14:21;32.80;38.70
41953;DHT22;47381;28.206;112.926;2022-08-07T12:17:10;32.80;38.80
41953;DHT22;47381;28.206;112.926;2022-08-07T12:20:27;32.80;38.80
41953;DHT22;47381;28.206;112.926;2022-08-07T12:26:03;32.80;40.00
41953;DHT22;47381;28.206;112.926;2022-08-07T12:29:00;32.80;41.50
41953;DHT22;47381;28.206;112.926;2022-08-07T12:34:25;32.80;41.90
41953;DHT22;47381;28.206;112.926;2022-08-07T12:36:56;32.80;41.10
41953;DHT22;47381;28.206;112.926;2022-08-07T12:39:24;32.70;32.20
41953;DHT22;47381;28.206;112.926;2022-08-07T12:41:53;32.60;32.60
41953;DHT22;47381;28.206;112.926;2022-08-07T12:44:26;32.70;34.40
41953;DHT22;47381;28.206;112.926;2022-08-07T12:47:09;32.70;35.30
41953;DHT22;47381;28.206;112.926;2022-08-07T12:53:17;32.70;35.80
41953;DHT22;47381;28.206;112.926;2022-08-07T12:58:21;32.70;34.70
41953;DHT22;47381;28.206;112.926;2022-08-07T13:08:59;32.60;35.00
41953;DHT22;47381;28.206;112.926;2022-08-07T13:20:02;32.40;29.80
41953;DHT22;47381;28.206;112.926;2022-08-07T13:22:35;32.40;30.70
41953;DHT22;47381;28.206;112.926;2022-08-07T13:27:55;32.50;30.90
41953;DHT22;47381;28.206;112.926;2022-08-07T13:30:25;32.50;31.30
41953;DHT22;47381;28.206;112.926;2022-08-07T13:33:04;32.50;31.80
41953;DHT22;47381;28.206;112.926;2022-08-07T13:35:44;32.50;32.40
41953;DHT22;47381;28.206;112.926;2022-08-07T13:38:16;32.40;33.00
41953;DHT22;47381;28.206;112.926;2022-08-07T13:41:10;32.50;33.70
41953;DHT22;47381;28.206;112.926;2022-08-07T13:43:45;32.50;33.80
41953;DHT22;47381;28.206;112.926;2022-08-07T13:46:17;32.50;33.80
41953;DHT22;47381;28.206;112.926;2022-08-07T13:48:51;32.50;33.40
41953;DHT22;47381;28.206;112.926;2022-08-07T13:51:18;32.50;33.70
41953;DHT22;47381;28.206;112.926;2022-08-07T13:53:59;32.50;33.50
41953;DHT22;47381;28.206;112.926;2022-08-07T13:56:29;32.50;33.50
41953;DHT22;47381;28.206;112.926;2022-08-07T13:58:58;32.50;33.80
41953;DHT22;47381;28.206;112.926;2022-08-07T14:04:23;32.50;34.10
41953;DHT22;47381;28.206;112.926;2022-08-07T14:06:56;32.50;33.80
41953;DHT22;47381;28.206;112.926;2022-08-07T14:09:27;32.50;34.20
41953;DHT22;47381;28.206;112.926;2022-08-07T14:12:01;32.50;34.40
41953;DHT22;47381;28.206;112.926;2022-08-07T14:14:50;32.50;30.90
41953;DHT22;47381;28.206;112.926;2022-08-07T14:17:23;32.20;28.80
41953;DHT22;47381;28.206;112.926;2022-08-07T14:20:15;32.30;29.10
41953;DHT22;47381;28.206;112.926;2022-08-07T14:22:52;32.40;31.70
41953;DHT22;47381;28.206;112.926;2022-08-07T14:25:46;32.40;31.90
41953;DHT22;47381;28.206;112.926;2022-08-07T14:28:19;32.40;33.60
41953;DHT22;47381;28.206;112.926;2022-08-07T14:30:48;32.50;34.10
41953;DHT22;47381;28.206;112.926;2022-08-07T14:33:36;32.50;34.00
41953;DHT22;47381;28.206;112.926;2022-08-07T14:36:04;32.60;35.00
41953;DHT22;47381;28.206;112.926;2022-08-07T14:38:36;32.60;35.60
41953;DHT22;47381;28.206;112.926;2022-08-07T14:41:10;32.70;36.10
41953;DHT22;47381;28.206;112.926;2022-08-07T14:43:42;32.70;36.50
41953;DHT22;47381;28.206;112.926;2022-08-07T14:46:17;32.80;36.90
41953;DHT22;47381;28.206;112.926;2022-08-07T14:48:47;32.90;37.00
41953;DHT22;47381;28.206;112.926;2022-08-07T14:51:24;33.10;37.20
41953;DHT22;47381;28.206;112.926;2022-08-07T14:53:55;33.20;37.30
41953;DHT22;47381;28.206;112.926;2022-08-07T14:56:28;33.20;37.40
41953;DHT22;47381;28.206;112.926;2022-08-07T14:59:03;33.30;37.40
41953;DHT22;47381;28.206;112.926;2022-08-07T15:01:37;33.50;37.30
41953;DHT22;47381;28.206;112.926;2022-08-07T15:04:25;33.70;37.30
41953;DHT22;47381;28.206;112.926;2022-08-07T15:07:19;33.70;37.10
41953;DHT22;47381;28.206;112.926;2022-08-07T15:09:50;33.80;37.20
41953;DHT22;47381;28.206;112.926;2022-08-07T15:12:22;33.90;37.50
41953;DHT22;47381;28.206;112.926;2022-08-07T15:15:10;34.00;37.80
41953;DHT22;47381;28.206;112.926;2022-08-07T15:17:43;34.20;37.90
41953;DHT22;47381;28.206;112.926;2022-08-07T15:20:15;34.20;38.60
41953;DHT22;47381;28.206;112.926;2022-08-07T15:22:51;34.40;38.80
41953;DHT22;47381;28.206;112.926;2022-08-07T15:25:30;34.50;40.60
41953;DHT22;47381;28.206;112.926;2022-08-07T15:28:00;34.60;41.80
41953;DHT22;47381;28.206;112.926;2022-08-07T15:30:30;34.60;41.60
41953;DHT22;47381;28.206;112.926;2022-08-07T15:33:05;34.70;41.20
41953;DHT22;47381;28.206;112.926;2022-08-07T15:35:35;34.70;40.70
41953;DHT22;47381;28.206;112.926;2022-08-07T15:38:03;34.70;39.90
41953;DHT22;47381;28.206;112.926;2022-08-07T15:40:32;34.70;39.30
41953;DHT22;47381;28.206;112.926;2022-08-07T15:43:22;34.60;38.90
41953;DHT22;47381;28.206;112.926;2022-08-07T15:45:53;34.60;38.60
41953;DHT22;47381;28.206;112.926;2022-08-07T15:48:25;34.60;38.00
41953;DHT22;47381;28.206;112.926;2022-08-07T15:51:03;34.50;37.80
41953;DHT22;47381;28.206;112.926;2022-08-07T15:53:50;34.50;37.90
41953;DHT22;47381;28.206;112.926;2022-08-07T15:56:42;34.40;38.40
41953;DHT22;47381;28.206;112.926;2022-08-07T15:59:15;34.40;38.20
41953;DHT22;47381;28.206;112.926;2022-08-07T16:02:06;34.30;38.00
41953;DHT22;47381;28.206;112.926;2022-08-07T16:04:35;34.20;37.60
41953;DHT22;47381;28.206;112.926;2022-08-07T16:07:30;34.20;37.30
41953;DHT22;47381;28.206;112.926;2022-08-07T16:10:13;34.10;36.60
41953;DHT22;47381;28.206;112.926;2022-08-07T16:13:26;34.00;36.10
41953;DHT22;47381;28.206;112.926;2022-08-07T16:16:16;34.00;35.70
41953;DHT22;47381;28.206;112.926;2022-08-07T16:21:46;33.90;34.90
41953;DHT22;47381;28.206;112.926;2022-08-07T16:27:12;33.80;35.10
41953;DHT22;47381;28.206;112.926;2022-08-07T16:30:12;33.80;35.20
41953;DHT22;47381;28.206;112.926;2022-08-07T16:35:37;33.70;36.10
41953;DHT22;47381;28.206;112.926;2022-08-07T16:53:08;33.50;36.60
41953;DHT22;47381;28.206;112.926;2022-08-07T16:56:04;33.40;36.10
41953;DHT22;47381;28.206;112.926;2022-08-07T17:04:36;33.30;35.20
41953;DHT22;47381;28.206;112.926;2022-08-07T17:09:53;33.20;35.00
41953;DHT22;47381;28.206;112.926;2022-08-07T17:13:00;33.20;35.00
41953;DHT22;47381;28.206;112.926;2022-08-07T17:19:01;33.20;35.20
41953;DHT22;47381;28.206;112.926;2022-08-07T17:21:33;33.20;34.90
41953;DHT22;47381;28.206;112.926;2022-08-07T17:26:59;33.20;34.90
41953;DHT22;47381;28.206;112.926;2022-08-07T17:30:28;33.20;35.40
41953;DHT22;47381;28.206;112.926;2022-08-07T17:35:56;33.10;34.60
41953;DHT22;47381;28.206;112.926;2022-08-07T17:38:48;33.10;34.50
41953;DHT22;47381;28.206;112.926;2022-08-07T17:50:07;33.00;33.70
41953;DHT22;47381;28.206;112.926;2022-08-07T17:52:53;32.90;33.70
41953;DHT22;47381;28.206;112.926;2022-08-07T18:01:03;32.90;33.00
41953;DHT22;47381;28.206;112.926;2022-08-07T18:06:40;32.90;32.50
41953;DHT22;47381;28.206;112.926;2022-08-07T18:09:19;32.80;32.40
41953;DHT22;47381;28.206;112.926;2022-08-07T18:17:33;32.80;31.50
41953;DHT22;47381;28.206;112.926;2022-08-07T18:20:13;32.70;31.30
41953;DHT22;47381;28.206;112.926;2022-08-07T18:23:13;32.70;31.10
41953;DHT22;47381;28.206;112.926;2022-08-07T18:25:47;32.70;30.80
41953;DHT22;47381;28.206;112.926;2022-08-07T18:39:45;32.60;29.80
41953;DHT22;47381;28.206;112.926;2022-08-07T18:45:22;32.60;30.40
41953;DHT22;47381;28.206;112.926;2022-08-07T19:02:00;32.50;30.30
41953;DHT22;47381;28.206;112.926;2022-08-07T19:04:39;32.50;30.40
41953;DHT22;47381;28.206;112.926;2022-08-07T19:07:38;32.50;30.20
41953;DHT22;47381;28.206;112.926;2022-08-07T19:10:06;32.50;30.20
41953;DHT22;47381;28.206;112.926;2022-08-07T19:13:05;32.50;30.10
41953;DHT22;47381;28.206;112.926;2022-08-07T19:21:34;32.40;30.10
41953;DHT22;47381;28.206;112.926;2022-08-07T19:24:21;32.40;30.10
41953;DHT22;47381;28.206;112.926;2022-08-07T19:26:52;32.40;29.90
41953;DHT22;47381;28.206;112.926;2022-08-07T19:29:23;32.40;29.70
41953;DHT22;47381;28.206;112.926;2022-08-07T19:31:52;32.40;29.90
41953;DHT22;47381;28.206;112.926;2022-08-07T19:34:22;32.40;30.10
41953;DHT22;47381;28.206;112.926;2022-08-07T19:36:52;32.40;30.30
41953;DHT22;47381;28.206;112.926;2022-08-07T19:39:32;32.40;30.00
41953;DHT22;47381;28.206;112.926;2022-08-07T19:42:00;32.40;30.20
41953;DHT22;47381;28.206;112.926;2022-08-07T19:44:36;32.40;30.40
41953;DHT22;47381;28.206;112.926;2022-08-07T19:47:13;32.30;30.50
41953;DHT22;47381;28.206;112.926;2022-08-07T19:49:46;32.40;30.20
41953;DHT22;47381;28.206;112.926;2022-08-07T19:52:17;32.30;30.40
41953;DHT22;47381;28.206;112.926;2022-08-07T19:54:46;32.30;30.10
41953;DHT22;47381;28.206;112.926;2022-08-07T19:57:25;32.30;30.10
41953;DHT22;47381;28.206;112.926;2022-08-07T20:00:01;32.20;30.00
41953;DHT22;47381;28.206;112.926;2022-08-07T20:02:44;32.30;30.00
41953;DHT22;47381;28.206;112.926;2022-08-07T20:05:13;32.30;29.90
41953;DHT22;47381;28.206;112.926;2022-08-07T20:07:43;32.30;30.00
41953;DHT22;47381;28.206;112.926;2022-08-07T20:10:20;32.20;29.90
41953;DHT22;47381;28.206;112.926;2022-08-07T20:12:52;32.20;29.80
41953;DHT22;47381;28.206;112.926;2022-08-07T20:15:22;32.20;29.90
41953;DHT22;47381;28.206;112.926;2022-08-07T20:17:54;32.20;30.00
41953;DHT22;47381;28.206;112.926;2022-08-07T20:20:22;32.20;30.30
41953;DHT22;47381;28.206;112.926;2022-08-07T20:22:54;32.20;31.00
41953;DHT22;47381;28.206;112.926;2022-08-07T20:25:25;32.20;31.80
41953;DHT22;47381;28.206;112.926;2022-08-07T20:27:53;32.20;33.30